Time;durP1;ratioP1;P1;durP2;ratioP2;P2;SDS_P1;SDS_P2;PMS_P1;PMS_P2;Temp;Humidity;BMP_temperature;BMP_pressure;BME280_temperature;BME280_humidity;BME280_pressure;Samples;Min_cycle;Max_cycle;Signal;HPM_P1;HPM_P2
2021/03/09 00:00:14;;;;;;;15.07;12.53;;;6.20;61.80;;;;;;6295179;28;20507;-63
2021/03/09 00:03:16;;;;;;;13.20;10.93;;;6.10;61.00;;;;;;6295533;28;20997;-62
2021/03/09 00:06:20;;;;;;;15.93;13.77;;;6.00;60.90;;;;;;6295800;28;20480;-63
2021/03/09 00:09:22;;;;;;;14.13;12.13;;;5.90;60.80;;;;;;6294950;28;20442;-63
2021/03/09 00:12:25;;;;;;;14.87;12.07;;;6.00;60.90;;;;;;6295275;28;20452;-63
2021/03/09 00:15:27;;;;;;;19.03;17.20;;;5.90;61.20;;;;;;6296647;28;20472;-65
2021/03/09 00:18:30;;;;;;;15.00;11.60;;;5.90;61.40;;;;;;6297433;28;20939;-65
2021/03/09 00:21:33;;;;;;;14.17;12.67;;;5.90;61.60;;;;;;6296872;28;20511;-63
2021/03/09 00:24:35;;;;;;;14.03;12.40;;;5.80;61.80;;;;;;6297019;28;20460;-64
2021/03/09 00:27:37;;;;;;;15.40;11.80;;;5.80;62.00;;;;;;6296634;28;20453;-63
2021/03/09 00:30:40;;;;;;;17.03;13.23;;;5.90;61.80;;;;;;6297653;28;20463;-62
2021/03/09 00:33:42;;;;;;;14.73;12.27;;;5.90;61.60;;;;;;6297227;28;20527;-61
2021/03/09 00:36:45;;;;;;;15.10;12.57;;;5.80;61.60;;;;;;6297378;28;20481;-63
2021/03/09 00:39:47;;;;;;;19.27;14.20;;;5.80;61.90;;;;;;6297005;28;20504;-62
2021/03/09 00:42:49;;;;;;;17.37;13.30;;;5.90;62.00;;;;;;6297236;28;20500;-62
2021/03/09 00:45:52;;;;;;;16.37;12.37;;;5.80;63.40;;;;;;6297088;28;20465;-62
2021/03/09 00:48:54;;;;;;;15.47;12.30;;;5.80;63.20;;;;;;6297130;28;20469;-62
2021/03/09 00:51:57;;;;;;;17.60;13.10;;;5.80;63.20;;;;;;6297308;28;20485;-63
2021/03/09 00:54:59;;;;;;;13.27;11.23;;;5.90;63.20;;;;;;6296821;28;20478;-63
2021/03/09 00:58:02;;;;;;;17.70;12.73;;;5.90;62.80;;;;;;6300493;28;20465;-63
2021/03/09 01:01:06;;;;;;;15.03;12.53;;;5.90;62.30;;;;;;6304026;28;20473;-62
2021/03/09 01:04:08;;;;;;;16.03;13.23;;;6.00;62.00;;;;;;6304116;28;20480;-62
2021/03/09 01:07:11;;;;;;;16.57;13.10;;;5.90;62.20;;;;;;6303048;28;20473;-62
2021/03/09 01:10:16;;;;;;;18.57;13.23;;;5.90;61.80;;;;;;6304067;28;20488;-62
2021/03/09 01:13:18;;;;;;;16.60;13.67;;;5.70;62.00;;;;;;6299365;28;20472;-64
2021/03/09 01:16:20;;;;;;;17.67;13.20;;;5.50;62.70;;;;;;6303616;28;20492;-64
2021/03/09 01:19:23;;;;;;;19.40;14.80;;;5.50;63.00;;;;;;6303186;28;20473;-63
2021/03/09 01:22:26;;;;;;;18.90;14.43;;;5.30;63.60;;;;;;6302019;28;20465;-63
2021/03/09 01:25:28;;;;;;;17.93;13.10;;;5.40;63.90;;;;;;6299055;28;20491;-63
2021/03/09 01:28:30;;;;;;;18.30;13.50;;;5.40;63.80;;;;;;6301578;28;20809;-63
2021/03/09 01:31:32;;;;;;;21.10;15.90;;;5.40;63.60;;;;;;6302674;28;20491;-63
2021/03/09 01:34:36;;;;;;;18.27;13.83;;;5.40;63.90;;;;;;6303465;28;20484;-64
2021/03/09 01:37:39;;;;;;;16.50;12.97;;;5.50;64.20;;;;;;6302975;28;20492;-63
2021/03/09 01:40:41;;;;;;;16.90;14.00;;;5.70;64.10;;;;;;6303137;28;20473;-64
2021/03/09 01:43:43;;;;;;;20.17;14.70;;;5.80;63.70;;;;;;6303356;28;20473;-63
2021/03/09 01:46:47;;;;;;;19.03;14.97;;;5.80;63.00;;;;;;6302869;28;21079;-63
2021/03/09 01:49:49;;;;;;;18.50;14.87;;;5.90;62.90;;;;;;6302812;28;20473;-63
2021/03/09 01:52:52;;;;;;;18.40;15.17;;;6.00;62.50;;;;;;6302785;28;20474;-64
2021/03/09 01:55:56;;;;;;;19.20;14.53;;;5.90;62.30;;;;;;6302495;28;20558;-63
2021/03/09 01:59:01;;;;;;;22.23;14.80;;;6.00;62.20;;;;;;6302544;28;20483;-63
2021/03/09 02:02:03;;;;;;;19.23;14.97;;;6.00;62.20;;;;;;6302534;28;20991;-63
2021/03/09 02:05:07;;;;;;;19.87;14.30;;;6.10;62.10;;;;;;6302665;28;20469;-63
2021/03/09 02:08:11;;;;;;;19.60;14.97;;;6.10;61.80;;;;;;6302497;28;20465;-63
2021/03/09 02:11:24;;;;;;;17.60;13.53;;;6.20;61.70;;;;;;6302081;28;20484;-64
2021/03/09 02:14:32;;;;;;;16.70;15.00;;;6.10;62.00;;;;;;6302242;28;20806;-63
2021/03/09 02:17:38;;;;;;;18.90;14.67;;;6.00;62.20;;;;;;6298446;28;20466;-63
2021/03/09 02:21:29;;;;;;;18.50;14.60;;;6.10;62.30;;;;;;6301994;28;20484;-63
2021/03/09 02:24:57;;;;;;;20.43;15.43;;;6.10;62.10;;;;;;6302116;28;20469;-63
2021/03/09 02:28:12;;;;;;;19.53;14.70;;;6.20;62.20;;;;;;6302165;28;20480;-63
2021/03/09 02:31:17;;;;;;;21.37;15.00;;;6.20;62.30;;;;;;6302244;28;20469;-62
2021/03/09 02:34:26;;;;;;;20.60;15.13;;;6.20;62.00;;;;;;6301794;28;20461;-63
2021/03/09 02:37:34;;;;;;;15.77;14.17;;;6.30;61.90;;;;;;6301896;28;20783;-63
2021/03/09 02:40:38;;;;;;;18.37;15.50;;;6.20;61.70;;;;;;6301790;28;20484;-64
2021/03/09 02:43:44;;;;;;;20.70;16.47;;;6.20;62.40;;;;;;6301991;28;20552;-63
2021/03/09 02:46:49;;;;;;;21.00;15.33;;;6.00;62.70;;;;;;6301969;28;20484;-63
2021/03/09 02:50:01;;;;;;;20.33;15.10;;;6.00;62.80;;;;;;6301403;28;20473;-62
2021/03/09 02:53:08;;;;;;;19.60;14.60;;;5.80;63.60;;;;;;6302039;28;20465;-63
2021/03/09 02:56:12;;;;;;;17.10;14.80;;;5.70;64.10;;;;;;6301104;28;20804;-62
2021/03/09 02:59:17;;;;;;;19.03;14.80;;;5.70;64.50;;;;;;6301234;28;20473;-62
2021/03/09 03:02:21;;;;;;;19.23;15.17;;;5.80;65.00;;;;;;6301035;28;20469;-62
2021/03/09 03:05:24;;;;;;;16.20;13.30;;;5.70;65.00;;;;;;6300777;28;21011;-62
2021/03/09 03:08:29;;;;;;;18.97;16.53;;;5.70;65.10;;;;;;6301029;28;20473;-62
2021/03/09 03:11:33;;;;;;;20.27;15.10;;;5.60;65.90;;;;;;6300794;28;20466;-62
2021/03/09 03:14:37;;;;;;;22.27;16.53;;;5.60;66.50;;;;;;6300652;28;20461;-62
2021/03/09 03:17:43;;;;;;;19.03;14.83;;;5.50;66.90;;;;;;6300710;28;20481;-62
2021/03/09 03:20:47;;;;;;;21.40;15.40;;;5.50;67.20;;;;;;6299536;28;20894;-62
2021/03/09 03:23:50;;;;;;;18.50;14.57;;;5.40;67.40;;;;;;6300412;28;20481;-62
2021/03/09 03:26:53;;;;;;;17.03;14.33;;;5.30;67.50;;;;;;6300122;28;20473;-62
2021/03/09 03:29:56;;;;;;;20.50;16.10;;;5.30;67.60;;;;;;6300271;28;20791;-62
2021/03/09 03:33:00;;;;;;;20.20;15.17;;;5.10;68.40;;;;;;6300362;28;20480;-62
2021/03/09 03:36:04;;;;;;;16.60;14.07;;;5.10;68.50;;;;;;6300271;28;20488;-62
2021/03/09 03:39:07;;;;;;;17.13;13.30;;;5.10;68.70;;;;;;6300315;28;20468;-61
2021/03/09 03:42:09;;;;;;;17.10;14.33;;;5.10;68.10;;;;;;6299841;28;20474;-61
2021/03/09 03:45:13;;;;;;;18.17;13.50;;;5.10;68.00;;;;;;6300155;28;20599;-61
2021/03/09 03:48:16;;;;;;;17.17;14.63;;;5.20;67.80;;;;;;6300038;28;20469;-61
2021/03/09 03:51:26;;;;;;;15.73;14.03;;;5.20;68.40;;;;;;6299951;28;20468;-61
2021/03/09 03:54:35;;;;;;;20.13;14.60;;;5.20;67.40;;;;;;6300616;28;20450;-61
2021/03/09 03:57:43;;;;;;;16.10;14.40;;;5.20;67.60;;;;;;6300045;28;20459;-61
2021/03/09 04:00:46;;;;;;;17.50;14.67;;;5.20;68.00;;;;;;6300093;28;20469;-62
2021/03/09 04:03:51;;;;;;;18.30;13.87;;;5.20;68.00;;;;;;6299685;28;20820;-61
2021/03/09 04:06:54;;;;;;;19.50;14.53;;;5.10;68.40;;;;;;6299723;28;20477;-62
2021/03/09 04:09:57;;;;;;;19.17;14.80;;;5.20;68.60;;;;;;6299991;28;20522;-62
2021/03/09 04:13:00;;;;;;;19.30;15.80;;;5.10;68.40;;;;;;6299843;28;20480;-61
2021/03/09 04:16:04;;;;;;;18.13;14.90;;;5.00;69.20;;;;;;6299796;28;20477;-61
2021/03/09 04:19:09;;;;;;;19.77;14.43;;;4.90;69.70;;;;;;6299305;28;20880;-61
2021/03/09 04:22:11;;;;;;;17.80;13.90;;;5.00;70.40;;;;;;6299511;28;20953;-61
2021/03/09 04:25:14;;;;;;;18.17;13.80;;;5.10;70.20;;;;;;6290493;28;20480;-61
2021/03/09 04:28:17;;;;;;;23.70;15.33;;;5.20;70.00;;;;;;6299701;28;20477;-61
2021/03/09 04:31:20;;;;;;;22.43;15.73;;;5.20;69.70;;;;;;6299879;28;20474;-61
2021/03/09 04:34:23;;;;;;;19.10;14.80;;;5.20;69.20;;;;;;6299501;28;20464;-61
2021/03/09 04:37:25;;;;;;;20.97;15.37;;;5.20;69.40;;;;;;6300025;28;20485;-61
2021/03/09 04:40:28;;;;;;;23.60;18.20;;;5.20;69.80;;;;;;6299482;28;20475;-61
2021/03/09 04:43:30;;;;;;;22.03;17.17;;;5.30;69.70;;;;;;6299629;28;20465;-61
2021/03/09 04:46:32;;;;;;;20.57;16.27;;;5.30;69.80;;;;;;6299508;28;20469;-61
2021/03/09 04:49:36;;;;;;;23.47;18.03;;;5.30;69.90;;;;;;6299587;28;20472;-61
2021/03/09 04:52:39;;;;;;;22.20;17.27;;;5.30;70.70;;;;;;6299655;28;20477;-61
2021/03/09 04:55:41;;;;;;;22.10;15.93;;;5.30;69.90;;;;;;6298947;28;20957;-61
2021/03/09 04:58:44;;;;;;;17.67;14.93;;;5.30;69.90;;;;;;6299355;28;20796;-61
2021/03/09 05:01:46;;;;;;;23.27;15.20;;;5.30;70.10;;;;;;6299634;28;20476;-61
2021/03/09 05:04:53;;;;;;;19.50;16.10;;;5.30;69.60;;;;;;6299083;28;20509;-63
2021/03/09 05:07:55;;;;;;;20.60;15.57;;;5.30;69.80;;;;;;6299481;28;20472;-62
2021/03/09 05:10:58;;;;;;;17.90;14.50;;;5.30;70.00;;;;;;6299084;28;20527;-63
2021/03/09 05:14:00;;;;;;;21.90;15.50;;;5.30;69.90;;;;;;6299186;28;20980;-62
2021/03/09 05:17:02;;;;;;;21.33;16.37;;;5.30;70.20;;;;;;6298707;28;20965;-64
2021/03/09 05:20:08;;;;;;;20.30;15.37;;;5.20;70.10;;;;;;6298709;28;20485;-62
2021/03/09 05:23:10;;;;;;;23.30;16.80;;;5.20;69.80;;;;;;6298754;28;20470;-62
2021/03/09 05:26:12;;;;;;;18.90;15.50;;;5.20;70.40;;;;;;6298497;28;20981;-63
2021/03/09 05:29:15;;;;;;;20.47;15.63;;;5.20;71.30;;;;;;6289952;28;20473;-63
2021/03/09 05:32:17;;;;;;;19.70;15.10;;;5.20;70.30;;;;;;6298962;28;20492;-63
2021/03/09 05:35:20;;;;;;;21.30;14.37;;;5.30;70.20;;;;;;6298615;28;20540;-63
2021/03/09 05:38:23;;;;;;;20.83;15.53;;;5.30;69.60;;;;;;6298667;28;20469;-62
2021/03/09 05:41:25;;;;;;;19.43;15.43;;;5.40;69.80;;;;;;6298637;28;20973;-63
2021/03/09 05:44:27;;;;;;;17.80;14.97;;;5.40;69.70;;;;;;6299878;28;20477;-61
2021/03/09 05:47:32;;;;;;;21.00;17.10;;;5.40;69.30;;;;;;6303246;28;20964;-62
2021/03/09 05:50:35;;;;;;;23.43;16.00;;;5.40;69.20;;;;;;6303012;28;20525;-62
2021/03/09 05:53:37;;;;;;;19.30;15.63;;;5.40;69.30;;;;;;6302637;28;20543;-62
2021/03/09 05:56:39;;;;;;;19.93;16.10;;;5.20;70.00;;;;;;6302322;28;20480;-62
2021/03/09 05:59:43;;;;;;;19.57;16.90;;;4.90;70.50;;;;;;6302818;28;20469;-62
2021/03/09 06:02:45;;;;;;;23.57;16.60;;;4.90;71.60;;;;;;6302524;28;20484;-62
2021/03/09 06:05:50;;;;;;;20.13;16.80;;;4.90;72.00;;;;;;6302500;28;20533;-62
2021/03/09 06:08:52;;;;;;;19.73;15.53;;;4.90;71.90;;;;;;6302480;28;20820;-62
2021/03/09 06:12:22;;;;;;;22.80;16.00;;;5.00;71.50;;;;;;6302391;28;21003;-63
2021/03/09 06:15:24;;;;;;;25.50;16.20;;;5.10;71.30;;;;;;6301033;28;20461;-62
2021/03/09 06:18:26;;;;;;;26.57;18.17;;;5.10;71.90;;;;;;6302515;28;20445;-63
2021/03/09 06:21:30;;;;;;;23.93;18.70;;;5.00;71.80;;;;;;6301847;28;20484;-63
2021/03/09 06:24:32;;;;;;;20.93;16.17;;;5.10;71.90;;;;;;6302205;28;20477;-63
2021/03/09 06:27:34;;;;;;;26.23;17.80;;;5.10;71.40;;;;;;6301939;28;20460;-63
2021/03/09 06:30:39;;;;;;;19.90;15.60;;;5.10;71.00;;;;;;6297352;28;20479;-63
2021/03/09 06:33:41;;;;;;;20.20;16.40;;;5.00;70.60;;;;;;6301843;28;20465;-63
2021/03/09 06:37:01;;;;;;;22.77;16.40;;;4.90;71.60;;;;;;6301618;28;20813;-62
2021/03/09 06:40:06;;;;;;;22.50;16.57;;;4.80;71.60;;;;;;6301775;28;20489;-62
2021/03/09 06:43:14;;;;;;;22.77;17.10;;;4.70;71.10;;;;;;6300986;28;20465;-62
2021/03/09 06:46:18;;;;;;;28.10;14.33;;;4.70;70.50;;;;;;6301192;28;20461;-62
2021/03/09 06:49:21;;;;;;;20.57;14.30;;;4.70;71.60;;;;;;6300267;28;21861;-62
2021/03/09 06:52:24;;;;;;;22.80;14.37;;;4.80;70.40;;;;;;6298302;28;20469;-63
2021/03/09 06:55:28;;;;;;;15.83;12.97;;;4.90;69.20;;;;;;6300281;28;20558;-63
2021/03/09 06:58:32;;;;;;;17.53;13.17;;;5.00;68.20;;;;;;6301805;28;20472;-63
2021/03/09 07:01:34;;;;;;;20.13;12.80;;;5.20;67.40;;;;;;6301232;28;20473;-62
2021/03/09 07:04:38;;;;;;;16.70;13.40;;;5.30;66.00;;;;;;6301026;28;20492;-62
2021/03/09 07:07:43;;;;;;;16.90;12.50;;;5.40;63.90;;;;;;6301099;28;20486;-62
2021/03/09 07:10:45;;;;;;;17.07;12.80;;;5.40;62.00;;;;;;6300701;28;20976;-63
2021/03/09 07:13:48;;;;;;;15.90;13.23;;;5.40;62.10;;;;;;6301123;28;20465;-63
2021/03/09 07:16:51;;;;;;;20.07;11.93;;;5.30;62.50;;;;;;6300991;28;20481;-62
2021/03/09 07:19:55;;;;;;;15.57;12.20;;;5.40;62.30;;;;;;6300688;28;20572;-62
2021/03/09 07:23:02;;;;;;;20.40;12.27;;;5.50;61.60;;;;;;6300740;28;20496;-62
2021/03/09 07:26:08;;;;;;;15.83;11.60;;;5.50;61.10;;;;;;6300278;28;21007;-63
2021/03/09 07:29:15;;;;;;;16.53;11.40;;;5.60;60.80;;;;;;6301021;28;20541;-62
2021/03/09 07:32:21;;;;;;;15.73;13.40;;;5.70;60.60;;;;;;6300603;28;20477;-62
2021/03/09 07:35:25;;;;;;;17.27;12.70;;;5.80;60.70;;;;;;6300467;28;20467;-63
2021/03/09 07:38:28;;;;;;;15.83;13.80;;;5.80;60.70;;;;;;6300226;28;20473;-63
2021/03/09 07:41:30;;;;;;;18.07;14.23;;;5.90;61.90;;;;;;6300424;28;20811;-62
2021/03/09 07:44:33;;;;;;;18.50;14.80;;;5.90;61.20;;;;;;6300541;28;20556;-63
2021/03/09 07:47:40;;;;;;;16.47;12.53;;;5.90;61.10;;;;;;6299907;28;20566;-63
2021/03/09 07:50:45;;;;;;;20.57;14.20;;;5.90;60.80;;;;;;6300068;28;20469;-63
2021/03/09 07:54:13;;;;;;;14.10;12.60;;;5.90;61.10;;;;;;6299846;28;20477;-62
2021/03/09 07:57:20;;;;;;;20.60;13.27;;;5.90;60.80;;;;;;6299996;28;20476;-62
2021/03/09 08:00:21;;;;;;;17.53;14.70;;;5.80;60.70;;;;;;6299859;28;20540;-61
2021/03/09 08:03:25;;;;;;;16.50;13.70;;;5.80;61.40;;;;;;6299964;28;20760;-63
2021/03/09 08:06:41;;;;;;;17.80;12.87;;;5.90;61.60;;;;;;6298857;28;20481;-63
2021/03/09 08:09:44;;;;;;;19.23;14.10;;;6.00;61.00;;;;;;6299059;28;20468;-63
2021/03/09 08:12:45;;;;;;;14.77;11.67;;;6.00;60.20;;;;;;6298671;28;20466;-63
2021/03/09 08:15:48;;;;;;;15.40;12.70;;;6.10;60.50;;;;;;6298729;28;20481;-63
2021/03/09 08:18:51;;;;;;;12.47;10.53;;;6.20;59.90;;;;;;6295730;28;20763;-63
2021/03/09 08:21:55;;;;;;;14.60;11.30;;;6.20;59.10;;;;;;6299639;28;20978;-63
2021/03/09 08:24:58;;;;;;;13.63;12.23;;;6.20;58.80;;;;;;6299720;28;20489;-62
2021/03/09 08:28:31;;;;;;;12.93;11.43;;;6.20;58.50;;;;;;6299458;28;20529;-63
2021/03/09 08:31:33;;;;;;;14.93;11.87;;;6.20;58.30;;;;;;6299237;28;20863;-62
2021/03/09 08:34:35;;;;;;;12.83;10.90;;;6.30;58.30;;;;;;6299543;28;20467;-63
2021/03/09 08:37:39;;;;;;;15.13;11.07;;;6.40;57.60;;;;;;6299330;28;21032;-63
2021/03/09 08:41:13;;;;;;;13.80;11.03;;;6.40;56.70;;;;;;6290296;28;20488;-63
2021/03/09 08:44:19;;;;;;;12.80;11.50;;;6.50;56.80;;;;;;6257672;28;20490;-62
2021/03/09 08:47:21;;;;;;;13.83;11.43;;;6.50;55.80;;;;;;6296182;28;20501;-64
2021/03/09 08:50:37;;;;;;;14.07;10.80;;;6.60;56.30;;;;;;6295946;28;20508;-63
2021/03/09 08:53:39;;;;;;;14.37;10.93;;;6.60;55.10;;;;;;6296537;28;20474;-63
2021/03/09 08:56:43;;;;;;;11.63;9.87;;;6.40;54.80;;;;;;6296373;28;20473;-63
2021/03/09 08:59:47;;;;;;;14.80;10.37;;;6.40;54.10;;;;;;6296712;28;20803;-64
2021/03/09 09:02:49;;;;;;;17.73;12.33;;;6.50;53.70;;;;;;6296501;28;20523;-62
2021/03/09 09:05:53;;;;;;;14.80;11.90;;;6.50;54.00;;;;;;6296408;28;20989;-62
2021/03/09 09:08:55;;;;;;;14.20;12.57;;;6.50;53.70;;;;;;6296689;28;20470;-63
2021/03/09 09:12:18;;;;;;;12.60;10.40;;;6.40;54.00;;;;;;6296250;28;20465;-63
2021/03/09 09:15:25;;;;;;;12.50;10.67;;;6.50;53.70;;;;;;6295867;28;20798;-62
2021/03/09 09:18:28;;;;;;;12.67;11.07;;;6.60;52.90;;;;;;6296344;28;20481;-64
2021/03/09 09:21:30;;;;;;;12.50;10.07;;;6.70;52.90;;;;;;6300795;28;21023;-62
2021/03/09 09:24:33;;;;;;;15.10;10.57;;;6.60;52.50;;;;;;6300944;28;20459;-64
2021/03/09 09:27:41;;;;;;;12.60;10.20;;;6.60;52.30;;;;;;6301250;28;20532;-59
2021/03/09 09:30:46;;;;;;;13.57;11.03;;;6.60;51.80;;;;;;6300808;28;20471;-62
2021/03/09 09:33:52;;;;;;;11.73;9.80;;;6.70;51.40;;;;;;6300834;28;20812;-63
2021/03/09 09:36:55;;;;;;;11.07;9.47;;;6.60;50.60;;;;;;6300466;28;20817;-63
2021/03/09 09:40:03;;;;;;;12.80;11.10;;;6.50;50.50;;;;;;6300847;28;20473;-62
2021/03/09 09:43:08;;;;;;;12.77;9.77;;;6.60;51.10;;;;;;6291108;28;20466;-62
2021/03/09 09:46:18;;;;;;;13.57;11.10;;;6.60;50.40;;;;;;6299786;28;20473;-65
2021/03/09 09:49:20;;;;;;;10.87;9.77;;;6.80;50.50;;;;;;6300189;28;20961;-64
2021/03/09 09:52:23;;;;;;;13.53;10.20;;;6.80;49.70;;;;;;6299855;28;20476;-61
2021/03/09 09:55:26;;;;;;;15.47;9.97;;;6.70;48.90;;;;;;6299936;28;20549;-64
2021/03/09 09:58:46;;;;;;;12.17;10.17;;;6.70;48.50;;;;;;6299526;28;20496;-61
2021/03/09 10:01:49;;;;;;;12.17;8.67;;;6.60;47.70;;;;;;6299754;28;21022;-62
2021/03/09 10:04:52;;;;;;;9.93;8.37;;;6.70;47.70;;;;;;6295731;28;20469;-62
2021/03/09 10:07:54;;;;;;;8.63;7.13;;;6.80;45.70;;;;;;6299282;28;20473;-61
2021/03/09 10:11:00;;;;;;;12.27;8.70;;;6.70;45.20;;;;;;6298817;28;20980;-61
2021/03/09 10:14:06;;;;;;;9.83;8.83;;;6.80;45.30;;;;;;6299115;28;20473;-61
2021/03/09 10:17:18;;;;;;;10.83;8.13;;;6.90;44.90;;;;;;6299602;28;20630;-62
2021/03/09 10:20:23;;;;;;;10.33;9.00;;;7.00;45.20;;;;;;6297462;28;20485;-62
2021/03/09 10:23:25;;;;;;;11.30;9.53;;;7.10;45.60;;;;;;6299601;28;20497;-62
2021/03/09 10:26:30;;;;;;;11.00;9.10;;;7.20;45.10;;;;;;6299257;28;20488;-61
2021/03/09 10:29:36;;;;;;;9.30;8.30;;;7.30;44.80;;;;;;6298973;28;20610;-61
2021/03/09 10:32:52;;;;;;;11.30;8.70;;;7.50;45.30;;;;;;6299400;28;20814;-62
2021/03/09 10:36:10;;;;;;;9.93;8.47;;;7.60;44.50;;;;;;6299279;28;20470;-62
2021/03/09 10:39:15;;;;;;;8.97;8.07;;;7.70;44.00;;;;;;6298569;28;20476;-62
2021/03/09 10:42:32;;;;;;;10.60;9.40;;;7.20;44.20;;;;;;6298904;28;20488;-62
2021/03/09 10:45:37;;;;;;;12.33;9.73;;;7.10;45.00;;;;;;6289608;28;20957;-62
2021/03/09 10:48:40;;;;;;;11.13;9.20;;;6.90;45.10;;;;;;6299031;28;20442;-61
2021/03/09 10:51:42;;;;;;;11.50;9.10;;;6.90;45.20;;;;;;6298404;28;20914;-62
2021/03/09 10:54:45;;;;;;;11.27;9.60;;;7.00;45.80;;;;;;6298377;28;20476;-61
2021/03/09 10:57:59;;;;;;;11.40;10.17;;;7.10;44.70;;;;;;6298936;28;20470;-61
2021/03/09 11:01:03;;;;;;;12.70;9.60;;;7.30;44.60;;;;;;6298694;28;20469;-61
2021/03/09 11:04:05;;;;;;;10.33;9.33;;;7.50;44.40;;;;;;6298025;28;20465;-61
2021/03/09 11:07:07;;;;;;;10.90;9.27;;;7.50;44.10;;;;;;6298418;28;21106;-61
2021/03/09 11:10:11;;;;;;;14.83;9.80;;;7.40;43.80;;;;;;6298407;28;20469;-61
2021/03/09 11:13:16;;;;;;;12.20;9.87;;;7.50;44.00;;;;;;6298117;28;20802;-61
2021/03/09 11:16:19;;;;;;;13.40;10.07;;;7.60;44.10;;;;;;6298181;28;20474;-61
2021/03/09 11:19:21;;;;;;;9.23;7.73;;;7.80;43.40;;;;;;6297976;28;20477;-62
2021/03/09 11:22:24;;;;;;;11.70;9.27;;;7.70;42.60;;;;;;6298281;28;20468;-63
2021/03/09 11:25:27;;;;;;;10.33;9.33;;;7.60;43.40;;;;;;6298313;28;20565;-62
2021/03/09 11:28:29;;;;;;;12.03;9.33;;;7.80;43.40;;;;;;6298210;28;20484;-61
2021/03/09 11:31:33;;;;;;;11.03;9.40;;;8.00;43.30;;;;;;6298241;28;20461;-62
2021/03/09 11:34:36;;;;;;;9.10;8.20;;;8.10;43.10;;;;;;6297627;28;20496;-61
2021/03/09 11:37:38;;;;;;;10.67;9.40;;;8.10;42.30;;;;;;6297404;28;20465;-61
2021/03/09 11:40:40;;;;;;;12.73;10.00;;;8.00;42.20;;;;;;6297815;28;20467;-61
2021/03/09 11:43:43;;;;;;;11.90;9.07;;;8.00;42.20;;;;;;6297270;28;20533;-61
2021/03/09 11:46:47;;;;;;;10.20;8.73;;;8.10;42.30;;;;;;6296565;28;20465;-60
2021/03/09 11:49:49;;;;;;;10.83;8.90;;;8.20;42.10;;;;;;6290656;28;20477;-60
2021/03/09 11:52:52;;;;;;;10.80;9.07;;;8.30;42.00;;;;;;6292761;28;20731;-60
2021/03/09 11:55:54;;;;;;;12.27;10.23;;;8.40;41.80;;;;;;6296549;28;20230;-61
2021/03/09 11:58:56;;;;;;;10.50;8.73;;;8.40;41.50;;;;;;6296433;28;20469;-62
2021/03/09 12:01:59;;;;;;;10.27;8.67;;;8.30;41.70;;;;;;6297135;28;20964;-63
2021/03/09 12:05:03;;;;;;;10.53;9.30;;;8.20;41.70;;;;;;6297261;28;20539;-62
2021/03/09 12:08:06;;;;;;;11.70;9.87;;;8.00;41.80;;;;;;6297182;28;20479;-62
2021/03/09 12:11:08;;;;;;;10.03;8.60;;;7.90;42.00;;;;;;6297127;28;20476;-63
2021/03/09 12:14:10;;;;;;;9.97;8.83;;;7.90;42.40;;;;;;6296873;28;20804;-62
2021/03/09 12:17:13;;;;;;;11.67;9.63;;;7.90;42.20;;;;;;6297077;28;20485;-63
2021/03/09 12:20:18;;;;;;;11.83;10.20;;;7.80;42.90;;;;;;6296181;28;20556;-62
2021/03/09 12:23:20;;;;;;;10.23;9.23;;;7.70;42.40;;;;;;6296768;28;20980;-62
2021/03/09 12:26:39;;;;;;;11.47;9.70;;;7.60;42.70;;;;;;6296543;28;20480;-64
2021/03/09 12:29:41;;;;;;;10.77;9.67;;;7.70;42.80;;;;;;6297015;28;20812;-62
2021/03/09 12:32:47;;;;;;;10.17;9.13;;;7.90;42.60;;;;;;6296719;28;20930;-63
2021/03/09 12:35:49;;;;;;;12.87;8.67;;;8.00;42.20;;;;;;6296835;28;20974;-62
2021/03/09 12:38:52;;;;;;;10.90;9.50;;;8.20;41.90;;;;;;6296674;28;20588;-62
2021/03/09 12:41:54;;;;;;;10.47;9.20;;;8.30;41.50;;;;;;6296663;28;20803;-61
2021/03/09 12:45:00;;;;;;;11.73;9.60;;;8.30;41.30;;;;;;6296692;28;20810;-63
2021/03/09 12:48:04;;;;;;;10.23;8.60;;;8.50;41.40;;;;;;6296129;28;20466;-63
2021/03/09 12:51:07;;;;;;;12.37;9.43;;;8.70;41.30;;;;;;6296743;28;20570;-64
2021/03/09 12:54:10;;;;;;;13.60;9.63;;;8.80;41.30;;;;;;6288592;28;20807;-61
2021/03/09 12:57:12;;;;;;;12.60;8.93;;;8.90;41.00;;;;;;6300631;28;20469;-62
2021/03/09 13:00:16;;;;;;;12.23;9.50;;;8.90;40.60;;;;;;6301461;28;20514;-62
2021/03/09 13:03:19;;;;;;;11.30;9.50;;;9.00;40.80;;;;;;6301277;28;20469;-62
2021/03/09 13:06:21;;;;;;;11.30;8.70;;;9.00;40.70;;;;;;6300675;28;20956;-63
2021/03/09 13:09:24;;;;;;;10.07;9.07;;;9.00;40.40;;;;;;6301097;28;20456;-61
2021/03/09 13:12:26;;;;;;;11.10;10.00;;;9.00;40.40;;;;;;6301006;28;20441;-61
2021/03/09 13:15:28;;;;;;;10.80;9.70;;;9.00;39.90;;;;;;6301406;28;20548;-60
2021/03/09 13:18:31;;;;;;;8.53;7.70;;;9.00;40.10;;;;;;6300679;28;20452;-61
2021/03/09 13:21:34;;;;;;;13.43;8.60;;;9.00;40.30;;;;;;6300808;28;20968;-61
2021/03/09 13:24:37;;;;;;;12.53;9.57;;;9.00;40.50;;;;;;6300605;28;20445;-60
2021/03/09 13:27:40;;;;;;;10.20;9.20;;;9.00;40.30;;;;;;6300785;28;20481;-61
2021/03/09 13:30:42;;;;;;;10.87;9.60;;;9.00;40.10;;;;;;6299932;28;20460;-62
2021/03/09 13:33:46;;;;;;;12.63;8.43;;;9.10;40.20;;;;;;6300877;28;20968;-61
2021/03/09 13:36:48;;;;;;;11.63;10.17;;;9.20;40.00;;;;;;6300707;28;20818;-61
2021/03/09 13:39:50;;;;;;;10.47;9.37;;;9.10;39.70;;;;;;6300627;28;20465;-61
2021/03/09 13:42:52;;;;;;;10.43;9.27;;;9.00;40.00;;;;;;6300775;28;20464;-61
2021/03/09 13:45:55;;;;;;;10.60;9.60;;;9.00;40.50;;;;;;6300239;28;20481;-60
2021/03/09 13:48:58;;;;;;;12.63;9.50;;;9.20;40.20;;;;;;6300666;28;20997;-60
2021/03/09 13:52:00;;;;;;;13.33;10.47;;;9.30;39.90;;;;;;6300495;28;20469;-61
2021/03/09 13:55:17;;;;;;;10.50;9.40;;;9.70;39.90;;;;;;6294947;28;20550;-61
2021/03/09 13:58:19;;;;;;;9.97;8.97;;;10.50;38.00;;;;;;6299346;28;21003;-61
2021/03/09 14:01:21;;;;;;;10.90;9.80;;;11.20;36.80;;;;;;6300264;28;20469;-62
2021/03/09 14:04:24;;;;;;;11.87;9.97;;;11.40;36.00;;;;;;6299378;28;21083;-61
2021/03/09 14:07:27;;;;;;;13.97;10.50;;;11.10;36.00;;;;;;6300003;28;20473;-61
2021/03/09 14:10:29;;;;;;;12.10;10.80;;;11.30;36.00;;;;;;6300160;28;20465;-61
2021/03/09 14:13:31;;;;;;;11.40;10.30;;;11.30;35.50;;;;;;6300058;28;20537;-62
2021/03/09 14:16:35;;;;;;;11.80;9.93;;;11.30;35.70;;;;;;6299757;28;20518;-61
2021/03/09 14:19:39;;;;;;;10.97;9.70;;;11.10;35.70;;;;;;6299811;28;20473;-61
2021/03/09 14:22:42;;;;;;;12.00;10.00;;;10.90;35.80;;;;;;6299499;28;20493;-61
2021/03/09 14:25:45;;;;;;;13.23;11.70;;;10.30;36.70;;;;;;6298984;28;20477;-61
2021/03/09 14:28:47;;;;;;;15.10;9.93;;;10.30;36.80;;;;;;6299443;28;20480;-63
2021/03/09 14:31:52;;;;;;;11.20;10.00;;;10.30;37.10;;;;;;6298715;28;20568;-63
2021/03/09 14:34:56;;;;;;;11.37;9.83;;;10.30;37.10;;;;;;6299159;28;20480;-61
2021/03/09 14:37:58;;;;;;;11.00;9.90;;;10.30;37.10;;;;;;6299295;28;20548;-61
2021/03/09 14:41:00;;;;;;;12.60;10.40;;;10.30;37.10;;;;;;6299184;28;20807;-63
2021/03/09 14:44:03;;;;;;;11.90;10.60;;;10.30;37.10;;;;;;6298557;28;20545;-64
2021/03/09 14:47:06;;;;;;;12.20;10.23;;;10.10;37.00;;;;;;6298995;28;20480;-63
2021/03/09 14:50:10;;;;;;;11.90;10.77;;;9.80;38.40;;;;;;6298431;28;20480;-63
2021/03/09 14:53:13;;;;;;;11.80;10.60;;;9.50;38.80;;;;;;6298733;28;20466;-63
2021/03/09 14:56:30;;;;;;;15.63;9.43;;;9.40;39.10;;;;;;6296747;28;20466;-63
2021/03/09 14:59:37;;;;;;;12.50;9.80;;;9.20;39.60;;;;;;6297861;28;20469;-64
2021/03/09 15:02:40;;;;;;;10.30;9.07;;;9.20;39.70;;;;;;6284361;28;20492;-64
2021/03/09 15:05:43;;;;;;;12.07;9.70;;;9.00;40.00;;;;;;6297076;28;20848;-63
2021/03/09 15:08:46;;;;;;;13.70;10.40;;;9.00;40.10;;;;;;6297723;28;20884;-64
2021/03/09 15:11:48;;;;;;;17.90;11.10;;;8.90;40.30;;;;;;6298236;28;20472;-64
2021/03/09 15:14:50;;;;;;;12.73;10.30;;;8.90;41.00;;;;;;6298106;28;20465;-63
2021/03/09 15:17:52;;;;;;;11.47;10.40;;;8.80;41.50;;;;;;6298230;28;20984;-63
2021/03/09 15:20:56;;;;;;;12.33;10.10;;;8.80;41.00;;;;;;6297888;28;21153;-64
2021/03/09 15:23:58;;;;;;;11.97;10.37;;;8.70;41.20;;;;;;6298095;28;20798;-62
2021/03/09 15:27:00;;;;;;;13.57;9.83;;;8.80;41.10;;;;;;6297770;28;20481;-63
2021/03/09 15:30:04;;;;;;;10.63;9.60;;;8.90;41.30;;;;;;6297989;28;20483;-63
2021/03/09 15:33:07;;;;;;;13.03;11.70;;;8.90;40.90;;;;;;6297806;28;20915;-62
2021/03/09 15:36:11;;;;;;;13.00;10.13;;;8.80;41.20;;;;;;6297218;28;20803;-63
2021/03/09 15:39:13;;;;;;;11.90;9.23;;;8.60;41.20;;;;;;6297850;28;20461;-63
2021/03/09 15:42:15;;;;;;;10.67;9.23;;;8.70;41.30;;;;;;6297451;28;20479;-63
2021/03/09 15:45:18;;;;;;;11.57;10.30;;;8.60;41.20;;;;;;6297290;28;20543;-63
2021/03/09 15:48:21;;;;;;;11.70;9.90;;;8.60;41.20;;;;;;6297404;28;20473;-63
2021/03/09 15:51:24;;;;;;;13.60;10.37;;;8.60;41.30;;;;;;6297513;28;20461;-64